Archie, Missouri
Current Conditions -  °F | °C
As of 4:53 PM on Thursday 18 Dec 2014 (Local Time) from KOJC Reporting Station
Haze Haze  
Wind Chill: 33°   Ceiling: 700
Heat Index: 33°   Visibility: 4mi
Dew Point: 31°   Wind: 0mph
Humidity: 92%   Direction: NA
Pressure: 30.19"   Gusts: NA
Location:  38.48°N, 94.35°W
Report Text: KOJC 182253Z 00000KT 4SM BR OVC007 01/M01 A3019 RMK AO2 SLP232 T00061006
Loading
Personal Weather Stations






























Interactive Weather Map New forecast layout! Learn more

10-Day Weather Forecast

Advertisements
Track Severe Weather on mobile